createdAt,value
2023-03-01T00:02:23.688Z,81.80
2023-03-01T00:04:53.328Z,82.38
2023-03-01T00:07:20.916Z,78.95
2023-03-01T00:09:48.704Z,71.25
2023-03-01T00:12:17.759Z,76.28
2023-03-01T00:14:45.362Z,71.15
2023-03-01T00:17:13.030Z,71.93
2023-03-01T00:19:41.754Z,73.68
2023-03-01T00:22:09.408Z,64.90
2023-03-01T00:24:37.070Z,72.07
2023-03-01T00:27:05.761Z,70.20
2023-03-01T00:29:34.315Z,76.93
2023-03-01T00:32:02.135Z,80.70
2023-03-01T00:34:30.828Z,78.15
2023-03-01T00:36:58.755Z,75.85
2023-03-01T00:39:26.367Z,77.80
2023-03-01T00:41:55.835Z,81.68
2023-03-01T00:44:23.563Z,84.47
2023-03-01T00:46:51.328Z,80.80
2023-03-01T00:49:21.080Z,86.47
2023-03-01T00:51:48.770Z,82.45
2023-03-01T00:54:16.545Z,82.30
2023-03-01T00:56:44.354Z,83.97
2023-03-01T00:59:11.901Z,81.30
2023-03-01T01:01:39.700Z,79.20
2023-03-01T01:04:09.444Z,85.03
2023-03-01T01:06:36.982Z,80.28
2023-03-01T01:09:04.778Z,83.03
2023-03-01T01:11:34.314Z,72.70
2023-03-01T01:14:02.051Z,80.38
2023-03-01T01:16:30.740Z,75.28
2023-03-01T01:18:58.531Z,74.35
2023-03-01T01:21:27.808Z,77.22
2023-03-01T01:23:56.730Z,77.93
2023-03-01T01:26:27.227Z,79.55
2023-03-01T01:28:57.088Z,75.03
2023-03-01T01:31:30.867Z,74.28
2023-03-01T01:34:00.022Z,106.40
2023-03-01T01:36:28.424Z,86.43
2023-03-01T01:38:58.733Z,81.13
2023-03-01T01:41:26.995Z,77.57
2023-03-01T01:43:54.911Z,71.18
2023-03-01T01:46:26.851Z,74.32
2023-03-01T01:48:56.903Z,76.57
2023-03-01T01:51:26.522Z,77.70
2023-03-01T01:53:57.061Z,79.20
2023-03-01T01:56:26.448Z,85.43
2023-03-01T01:58:57.884Z,78.50
2023-03-01T02:01:27.195Z,75.85
2023-03-01T02:03:54.832Z,89.43
2023-03-01T02:06:30.182Z,73.38
2023-03-01T02:09:02.184Z,74.85
2023-03-01T02:11:30.424Z,85.32
2023-03-01T02:14:03.403Z,76.43
2023-03-01T02:16:31.661Z,67.72
2023-03-01T02:18:59.529Z,69.35
2023-03-01T02:21:29.223Z,65.03
2023-03-01T02:23:56.892Z,69.28
2023-03-01T02:26:24.478Z,70.22
2023-03-01T02:28:54.054Z,67.97
2023-03-01T02:31:21.790Z,72.90
2023-03-01T02:33:49.404Z,79.60
2023-03-01T02:36:18.903Z,65.93
2023-03-01T02:38:46.710Z,69.38
2023-03-01T02:41:14.344Z,75.00
2023-03-01T02:43:44.031Z,65.53
2023-03-01T02:46:11.811Z,62.95
2023-03-01T02:48:39.383Z,58.60
2023-03-01T02:51:09.342Z,67.45
2023-03-01T02:53:38.266Z,59.90
2023-03-01T02:56:07.279Z,55.90
2023-03-01T02:58:43.905Z,54.90
2023-03-01T03:01:11.702Z,55.50
2023-03-01T03:03:39.402Z,51.42
2023-03-01T03:06:09.186Z,59.72
2023-03-01T03:08:36.837Z,49.13
2023-03-01T03:11:04.552Z,52.25
2023-03-01T03:13:34.724Z,50.10
2023-03-01T03:16:02.760Z,48.47
2023-03-01T03:18:30.611Z,47.47
2023-03-01T03:21:01.277Z,46.67
2023-03-01T03:23:28.913Z,53.55
2023-03-01T03:25:56.499Z,52.08
2023-03-01T03:28:26.206Z,54.35
2023-03-01T03:30:53.824Z,54.03
2023-03-01T03:33:22.333Z,55.67
2023-03-01T03:35:52.177Z,62.78
2023-03-01T03:38:19.853Z,53.45
2023-03-01T03:40:47.518Z,51.22
2023-03-01T03:43:17.171Z,50.13
2023-03-01T03:45:44.755Z,49.95
2023-03-01T03:48:12.504Z,47.50
2023-03-01T03:50:43.073Z,50.30
2023-03-01T03:53:12.128Z,50.47
2023-03-01T03:55:39.783Z,45.05
2023-03-01T03:58:09.716Z,46.60
2023-03-01T04:00:37.423Z,60.35
2023-03-01T04:03:05.132Z,48.63
2023-03-01T04:05:34.971Z,49.15
2023-03-01T04:08:02.581Z,44.10
2023-03-01T04:10:30.288Z,47.03
2023-03-01T04:12:58.065Z,42.53
2023-03-01T04:15:25.705Z,42.55
2023-03-01T04:17:53.453Z,38.38
2023-03-01T04:20:27.300Z,37.63
2023-03-01T04:25:22.550Z,40.30
2023-03-01T04:27:50.795Z,34.15
2023-03-01T04:30:18.416Z,38.63
2023-03-01T04:32:46.099Z,32.75
2023-03-01T04:35:15.941Z,28.42
2023-03-01T04:37:43.495Z,27.30
2023-03-01T04:40:11.087Z,30.80
2023-03-01T04:42:41.426Z,32.05
2023-03-01T04:45:09.006Z,30.15
2023-03-01T04:47:37.369Z,26.42
2023-03-01T04:50:05.357Z,22.77
2023-03-01T04:52:33.092Z,30.70
2023-03-01T04:55:00.965Z,27.90
2023-03-01T04:57:30.956Z,24.40
2023-03-01T04:59:58.631Z,21.38
2023-03-01T05:02:26.226Z,24.25
2023-03-01T05:04:56.252Z,23.83
2023-03-01T05:07:23.770Z,20.40
2023-03-01T05:09:51.927Z,21.50
2023-03-01T05:12:23.342Z,20.60
2023-03-01T05:14:56.764Z,19.80
2023-03-01T05:17:27.343Z,19.02
2023-03-01T05:19:55.059Z,19.52
2023-03-01T05:22:22.636Z,19.65
2023-03-01T05:24:52.546Z,17.90
2023-03-01T05:27:20.189Z,18.65
2023-03-01T05:29:47.826Z,17.98
2023-03-01T05:32:15.594Z,17.85
2023-03-01T05:34:43.127Z,19.83
2023-03-01T05:37:10.683Z,20.63
2023-03-01T05:39:38.438Z,16.70
2023-03-01T05:42:06.019Z,20.77
2023-03-01T05:44:33.696Z,18.42
2023-03-01T05:47:03.646Z,21.10
2023-03-01T05:49:31.400Z,15.55
2023-03-01T05:51:59.030Z,20.13
2023-03-01T05:54:27.939Z,18.80
2023-03-01T05:56:55.509Z,15.60
2023-03-01T05:59:23.081Z,18.27
2023-03-01T06:01:53.008Z,17.95
2023-03-01T06:04:21.314Z,16.80
2023-03-01T06:06:48.946Z,19.40
2023-03-01T06:09:18.775Z,16.08
2023-03-01T06:11:46.274Z,17.15
2023-03-01T06:14:13.785Z,18.40
2023-03-01T06:16:43.892Z,17.92
2023-03-01T06:19:11.452Z,13.95
2023-03-01T06:21:39.080Z,15.50
2023-03-01T06:24:09.036Z,13.93
2023-03-01T06:26:37.652Z,16.73
2023-03-01T06:29:05.464Z,26.13
2023-03-01T06:31:34.039Z,16.50
2023-03-01T06:34:01.616Z,16.88
2023-03-01T06:36:29.332Z,13.80
2023-03-01T06:38:59.332Z,15.38
2023-03-01T06:41:27.109Z,14.52
2023-03-01T06:43:54.801Z,12.57
2023-03-01T06:46:22.496Z,15.07
2023-03-01T06:48:51.866Z,12.68
2023-03-01T06:51:20.707Z,16.58
2023-03-01T06:53:50.769Z,13.60
2023-03-01T06:56:18.384Z,14.27
2023-03-01T06:58:45.963Z,15.77
2023-03-01T07:01:14.928Z,12.60
2023-03-01T07:03:42.415Z,15.45
2023-03-01T07:06:09.972Z,12.77
2023-03-01T07:08:39.886Z,13.38
2023-03-01T07:11:07.428Z,14.38
2023-03-01T07:13:34.925Z,15.50
2023-03-01T07:16:06.192Z,14.57
2023-03-01T07:18:33.745Z,14.02
2023-03-01T07:21:01.237Z,13.02
2023-03-01T07:23:31.323Z,13.73
2023-03-01T07:25:58.847Z,14.77
2023-03-01T07:28:26.347Z,13.23
2023-03-01T07:30:56.290Z,13.77
2023-03-01T07:33:23.896Z,14.93
2023-03-01T07:35:51.558Z,13.80
2023-03-01T07:38:21.973Z,14.07
2023-03-01T07:40:49.673Z,13.27
2023-03-01T07:43:17.191Z,13.57
2023-03-01T07:45:47.287Z,14.20
2023-03-01T07:48:14.871Z,13.18
2023-03-01T07:50:43.579Z,15.45
2023-03-01T07:53:13.558Z,12.10
2023-03-01T07:55:41.374Z,11.88
2023-03-01T07:58:08.985Z,14.10
2023-03-01T08:00:38.064Z,15.50
2023-03-01T08:03:05.710Z,12.88
2023-03-01T08:05:33.226Z,13.90
2023-03-01T08:08:03.209Z,14.32
2023-03-01T08:10:30.966Z,16.67
2023-03-01T08:12:58.630Z,13.88
2023-03-01T08:15:26.458Z,14.80
2023-03-01T08:17:53.978Z,17.50
2023-03-01T08:20:21.564Z,11.50
2023-03-01T08:22:51.411Z,16.38
2023-03-01T08:25:19.030Z,13.00
2023-03-01T08:27:46.584Z,12.07
2023-03-01T08:30:16.369Z,13.27
2023-03-01T08:32:44.153Z,12.15
2023-03-01T08:35:11.723Z,14.77
2023-03-01T08:37:41.299Z,17.17
2023-03-01T08:40:08.940Z,14.77
2023-03-01T08:42:36.512Z,14.75
2023-03-01T08:45:06.824Z,15.25
2023-03-01T08:47:34.415Z,12.85
2023-03-01T08:50:01.963Z,14.88
2023-03-01T08:52:31.424Z,16.08
2023-03-01T08:54:59.007Z,12.82
2023-03-01T08:57:26.578Z,14.48
2023-03-01T08:59:56.411Z,13.55
2023-03-01T09:02:24.193Z,14.80
2023-03-01T09:04:51.817Z,13.48
2023-03-01T09:07:21.297Z,11.85
2023-03-01T09:09:48.871Z,13.10
2023-03-01T09:12:16.445Z,14.82
2023-03-01T09:14:46.054Z,19.63
2023-03-01T09:17:13.640Z,13.05
2023-03-01T09:19:41.170Z,15.02
2023-03-01T09:22:10.371Z,14.55
2023-03-01T09:24:37.924Z,11.05
2023-03-01T09:27:05.677Z,13.43
2023-03-01T09:29:35.650Z,16.63
2023-03-01T09:32:03.330Z,12.80
2023-03-01T09:34:31.002Z,11.30
2023-03-01T09:37:01.017Z,11.77
2023-03-01T09:39:28.648Z,13.88
2023-03-01T09:41:56.233Z,13.57
2023-03-01T09:44:26.392Z,14.85
2023-03-01T09:46:53.936Z,12.48
2023-03-01T09:49:21.563Z,13.23
2023-03-01T09:51:51.070Z,11.45
2023-03-01T09:54:18.690Z,13.52
2023-03-01T09:56:46.276Z,15.43
2023-03-01T09:59:15.918Z,13.07
2023-03-01T10:01:43.546Z,12.88
2023-03-01T10:04:11.876Z,12.65
2023-03-01T10:06:39.639Z,11.98
2023-03-01T10:09:07.257Z,15.05
2023-03-01T10:11:35.331Z,15.45
2023-03-01T10:14:05.076Z,13.35
2023-03-01T10:16:33.105Z,13.63
2023-03-01T10:19:00.820Z,14.73
2023-03-01T10:21:30.292Z,17.00
2023-03-01T10:24:00.165Z,18.67
2023-03-01T10:26:27.919Z,14.85
2023-03-01T10:28:58.205Z,16.38
2023-03-01T10:31:25.858Z,16.70
2023-03-01T10:33:54.411Z,15.13
2023-03-01T10:36:22.143Z,16.05
2023-03-01T10:38:49.744Z,14.52
2023-03-01T10:41:18.110Z,17.15
2023-03-01T10:43:48.105Z,12.02
2023-03-01T10:46:15.601Z,16.60
2023-03-01T10:48:43.208Z,16.13
2023-03-01T10:51:13.126Z,15.30
2023-03-01T10:53:41.169Z,14.30
2023-03-01T10:56:10.048Z,14.30
2023-03-01T10:58:40.042Z,20.63
2023-03-01T11:01:07.743Z,25.35
2023-03-01T11:03:35.337Z,22.08
2023-03-01T11:06:05.282Z,26.88
2023-03-01T11:08:34.873Z,30.52
2023-03-01T11:11:02.909Z,35.60
2023-03-01T11:13:33.245Z,39.15
2023-03-01T11:16:00.855Z,26.80
2023-03-01T11:18:45.896Z,21.67
2023-03-01T11:21:14.951Z,24.23
2023-03-01T11:23:42.537Z,28.10
2023-03-01T11:26:11.623Z,26.15
2023-03-01T11:28:47.497Z,24.15
2023-03-01T11:31:15.215Z,21.38
2023-03-01T11:33:44.968Z,28.35
2023-03-01T11:36:12.561Z,32.10
2023-03-01T11:38:40.125Z,40.47
2023-03-01T11:41:09.827Z,41.80
2023-03-01T11:43:37.742Z,40.75
2023-03-01T11:46:05.420Z,40.47
2023-03-01T11:48:49.017Z,39.35
2023-03-01T11:51:17.306Z,35.47
2023-03-01T11:53:47.062Z,34.50
2023-03-01T11:56:14.629Z,32.40
2023-03-01T11:58:42.256Z,33.08
2023-03-01T12:01:10.191Z,27.55
2023-03-01T12:03:37.748Z,24.65
2023-03-01T12:06:05.321Z,25.60
2023-03-01T12:08:35.408Z,21.88
2023-03-01T12:11:03.017Z,25.05
2023-03-01T12:13:30.700Z,24.60
2023-03-01T12:16:00.579Z,24.73
2023-03-01T12:18:28.125Z,25.83
2023-03-01T12:20:55.720Z,25.38
2023-03-01T12:23:25.739Z,27.95
2023-03-01T12:25:53.386Z,26.65
2023-03-01T12:28:20.927Z,29.30
2023-03-01T12:30:50.591Z,24.25
2023-03-01T12:33:19.605Z,29.35
2023-03-01T12:35:47.213Z,29.65
2023-03-01T12:38:17.436Z,30.67
2023-03-01T12:40:45.076Z,35.10
2023-03-01T12:43:12.675Z,36.10
2023-03-01T12:45:42.805Z,31.02
2023-03-01T12:48:10.444Z,33.10
2023-03-01T12:50:38.091Z,28.63
2023-03-01T12:53:08.373Z,31.90
2023-03-01T12:55:35.966Z,31.92
2023-03-01T12:58:03.595Z,30.15
2023-03-01T13:00:33.625Z,31.38
2023-03-01T13:03:01.316Z,26.55
2023-03-01T13:05:28.923Z,28.30
2023-03-01T13:07:56.767Z,29.90
2023-03-01T13:10:24.324Z,37.22
2023-03-01T13:12:51.936Z,28.17
2023-03-01T13:15:21.032Z,24.55
2023-03-01T13:17:48.585Z,27.00
2023-03-01T13:20:16.315Z,22.40
2023-03-01T13:22:54.289Z,28.38
2023-03-01T13:25:25.690Z,34.17
2023-03-01T13:27:55.572Z,33.42
2023-03-01T13:30:23.148Z,34.17
2023-03-01T13:32:50.833Z,37.63
2023-03-01T13:35:19.975Z,34.72
2023-03-01T13:37:47.620Z,39.28
2023-03-01T13:40:15.270Z,36.85
2023-03-01T13:42:43.292Z,40.90
2023-03-01T13:45:11.970Z,33.42
2023-03-01T13:47:40.422Z,29.65
2023-03-01T13:50:08.062Z,31.75
2023-03-01T13:52:35.674Z,27.63
2023-03-01T13:55:03.410Z,27.13
2023-03-01T13:57:31.098Z,25.85
2023-03-01T13:59:58.659Z,25.27
2023-03-01T14:02:26.256Z,26.48
2023-03-01T14:04:56.315Z,31.90
2023-03-01T14:07:23.916Z,26.77
2023-03-01T14:09:54.717Z,29.15
2023-03-01T14:12:22.362Z,28.35
2023-03-01T14:14:50.033Z,31.40
2023-03-01T14:17:17.863Z,29.20
2023-03-01T14:19:47.667Z,29.20
2023-03-01T14:22:15.349Z,25.23
2023-03-01T14:24:42.924Z,31.38
2023-03-01T14:27:12.554Z,29.65
2023-03-01T14:29:40.495Z,30.35
2023-03-01T14:32:08.520Z,29.25
2023-03-01T14:34:38.093Z,33.03
2023-03-01T14:37:05.674Z,28.27
2023-03-01T14:39:33.449Z,29.08
2023-03-01T14:42:14.096Z,27.95
2023-03-01T14:44:43.268Z,27.83
2023-03-01T14:47:12.868Z,25.17
2023-03-01T14:49:41.621Z,28.98
2023-03-01T14:52:09.438Z,27.35
2023-03-01T14:54:36.979Z,32.10
2023-03-01T14:57:04.538Z,29.55
2023-03-01T14:59:32.285Z,30.63
2023-03-01T15:02:02.126Z,28.85
2023-03-01T15:04:29.813Z,29.95
2023-03-01T15:06:57.619Z,31.42
2023-03-01T15:09:27.338Z,29.10
2023-03-01T15:11:57.432Z,34.00
2023-03-01T15:14:25.061Z,28.83
2023-03-01T15:16:55.439Z,27.88
2023-03-01T15:19:23.887Z,28.73
2023-03-01T15:21:51.410Z,32.40
2023-03-01T15:24:21.061Z,32.70
2023-03-01T15:26:48.860Z,37.45
2023-03-01T15:29:16.464Z,32.45
2023-03-01T15:31:46.489Z,34.38
2023-03-01T15:34:15.082Z,32.92
2023-03-01T15:36:42.694Z,32.92
2023-03-01T15:39:12.463Z,32.53
2023-03-01T15:41:40.277Z,32.35
2023-03-01T15:44:07.805Z,30.90
2023-03-01T15:46:37.885Z,25.95
2023-03-01T15:49:05.962Z,30.30
2023-03-01T15:51:33.668Z,31.23
2023-03-01T15:54:03.215Z,29.83
2023-03-01T15:56:31.252Z,28.17
2023-03-01T15:58:58.956Z,26.48
2023-03-01T16:01:28.381Z,26.98
2023-03-01T16:03:56.138Z,29.67
2023-03-01T16:06:23.751Z,29.65
2023-03-01T16:08:53.317Z,29.60
2023-03-01T16:11:21.080Z,32.08
2023-03-01T16:13:48.686Z,29.63
2023-03-01T16:16:16.396Z,30.58
2023-03-01T16:18:44.140Z,26.85
2023-03-01T16:21:11.802Z,27.75
2023-03-01T16:23:41.321Z,25.02
2023-03-01T16:26:09.001Z,28.42
2023-03-01T16:28:36.552Z,32.42
2023-03-01T16:31:06.059Z,29.33
2023-03-01T16:33:35.153Z,27.70
2023-03-01T16:36:02.855Z,34.90
2023-03-01T16:38:32.265Z,35.90
2023-03-01T16:41:00.003Z,31.33
2023-03-01T16:43:27.605Z,33.35
2023-03-01T16:45:57.379Z,34.25
2023-03-01T16:48:25.177Z,29.30
2023-03-01T16:50:52.717Z,27.52
2023-03-01T16:53:22.409Z,26.17
2023-03-01T16:55:50.097Z,26.60
2023-03-01T16:58:17.637Z,27.90
2023-03-01T17:00:47.181Z,31.83
2023-03-01T17:03:14.974Z,30.70
2023-03-01T17:05:42.512Z,29.10
2023-03-01T17:08:10.409Z,30.17
2023-03-01T17:10:38.141Z,28.15
2023-03-01T17:13:05.862Z,29.58
2023-03-01T17:15:35.360Z,28.35
2023-03-01T17:18:02.977Z,27.33
2023-03-01T17:20:30.673Z,25.55
2023-03-01T17:23:00.418Z,32.35
2023-03-01T17:25:28.136Z,30.20
2023-03-01T17:27:55.827Z,29.45
2023-03-01T17:30:25.622Z,26.27
2023-03-01T17:32:53.447Z,26.67
2023-03-01T17:35:21.862Z,28.73
2023-03-01T17:37:51.742Z,28.25
2023-03-01T17:40:21.760Z,28.25
2023-03-01T17:42:49.322Z,26.02
2023-03-01T17:45:19.126Z,29.88
2023-03-01T17:47:46.917Z,34.15
2023-03-01T17:50:14.673Z,28.95
2023-03-01T17:52:44.535Z,31.00
2023-03-01T17:55:12.254Z,29.73
2023-03-01T17:57:40.537Z,27.58
2023-03-01T18:00:10.430Z,29.42
2023-03-01T18:02:38.194Z,28.33
2023-03-01T18:05:06.305Z,31.58
2023-03-01T18:07:45.933Z,28.70
2023-03-01T18:10:14.846Z,32.30
2023-03-01T18:12:49.788Z,30.40
2023-03-01T18:15:20.113Z,29.58
2023-03-01T18:17:49.135Z,28.45
2023-03-01T18:20:21.056Z,29.63
2023-03-01T18:22:53.532Z,28.95
2023-03-01T18:25:21.582Z,29.00
2023-03-01T18:27:53.963Z,32.72
2023-03-01T18:30:27.921Z,28.27
2023-03-01T18:33:05.848Z,28.67
2023-03-01T18:35:33.440Z,31.05
2023-03-01T18:38:00.987Z,26.80
2023-03-01T18:40:30.981Z,31.13
2023-03-01T18:42:58.658Z,29.42
2023-03-01T18:45:26.284Z,29.13
2023-03-01T18:47:55.945Z,29.48
2023-03-01T18:50:23.588Z,28.48
2023-03-01T18:52:51.143Z,26.13
2023-03-01T18:55:21.010Z,29.95
2023-03-01T18:57:48.606Z,30.42
2023-03-01T19:00:16.273Z,30.33
2023-03-01T19:02:46.136Z,30.15
2023-03-01T19:05:17.510Z,29.60
2023-03-01T19:07:45.482Z,31.75
2023-03-01T19:10:13.936Z,28.02
2023-03-01T19:12:41.495Z,30.17
2023-03-01T19:15:09.105Z,30.90
2023-03-01T19:17:39.100Z,30.40
2023-03-01T19:20:06.908Z,27.52
2023-03-01T19:22:34.680Z,28.80
2023-03-01T19:25:04.197Z,34.25
2023-03-01T19:27:31.840Z,31.25
2023-03-01T19:29:59.604Z,32.78
2023-03-01T19:32:29.110Z,29.33
2023-03-01T19:34:56.919Z,29.52
2023-03-01T19:37:25.184Z,34.05
2023-03-01T19:39:54.704Z,35.67
2023-03-01T19:42:22.251Z,30.73
2023-03-01T19:44:49.926Z,29.88
2023-03-01T19:47:19.439Z,27.08
2023-03-01T19:49:46.991Z,30.85
2023-03-01T19:52:15.090Z,28.38
2023-03-01T19:54:44.591Z,28.10
2023-03-01T19:57:12.410Z,32.92
2023-03-01T19:59:40.040Z,25.98
2023-03-01T20:02:09.635Z,29.38
2023-03-01T20:04:37.248Z,28.95
2023-03-01T20:07:04.985Z,29.55
2023-03-01T20:09:34.320Z,27.58
2023-03-01T20:12:01.888Z,27.98
2023-03-01T20:14:29.631Z,30.25
2023-03-01T20:16:59.377Z,26.65
2023-03-01T20:19:28.261Z,27.60
2023-03-01T20:21:57.506Z,25.88
2023-03-01T20:24:45.138Z,26.90
2023-03-01T20:27:13.271Z,24.50
2023-03-01T20:29:44.722Z,25.95
2023-03-01T20:32:18.016Z,24.75
2023-03-01T20:34:48.576Z,26.23
2023-03-01T20:37:16.196Z,26.38
2023-03-01T20:39:46.018Z,27.33
2023-03-01T20:42:13.632Z,25.88
2023-03-01T20:44:42.937Z,24.73
2023-03-01T20:47:15.271Z,25.63
2023-03-01T20:49:43.363Z,24.77
2023-03-01T20:52:11.224Z,23.35
2023-03-01T20:54:41.036Z,23.98
2023-03-01T20:57:10.408Z,24.27
2023-03-01T20:59:54.931Z,25.33
2023-03-01T21:02:28.682Z,24.27
2023-03-01T21:04:58.388Z,27.75
2023-03-01T21:07:26.029Z,25.17
2023-03-01T21:09:54.366Z,21.50
2023-03-01T21:12:24.232Z,22.80
2023-03-01T21:14:51.933Z,22.45
2023-03-01T21:17:20.269Z,23.42
2023-03-01T21:19:49.961Z,24.52
2023-03-01T21:22:22.540Z,22.60
2023-03-01T21:24:51.084Z,22.15
2023-03-01T21:27:21.042Z,23.80
2023-03-01T21:29:49.116Z,26.20
2023-03-01T21:32:17.077Z,24.13
2023-03-01T21:34:46.851Z,21.60
2023-03-01T21:37:14.754Z,25.15
2023-03-01T21:39:42.516Z,24.95
2023-03-01T21:42:12.330Z,23.45
2023-03-01T21:44:40.113Z,22.83
2023-03-01T21:47:07.689Z,25.17
2023-03-01T21:49:37.443Z,24.55
2023-03-01T21:52:05.256Z,25.63
2023-03-01T21:54:34.273Z,31.45
2023-03-01T21:57:03.772Z,34.05
2023-03-01T21:59:31.590Z,28.23
2023-03-01T22:01:59.212Z,33.55
2023-03-01T22:04:28.779Z,32.58
2023-03-01T22:06:56.432Z,31.55
2023-03-01T22:09:24.031Z,29.88
2023-03-01T22:11:53.502Z,26.15
2023-03-01T22:14:21.138Z,26.00
2023-03-01T22:16:48.970Z,26.98
2023-03-01T22:19:18.530Z,27.80
2023-03-01T22:21:46.167Z,28.80
2023-03-01T22:24:13.856Z,22.58
2023-03-01T22:26:43.426Z,26.02
2023-03-01T22:29:11.072Z,26.13
2023-03-01T22:31:38.758Z,25.65
2023-03-01T22:34:08.542Z,31.08
2023-03-01T22:36:36.362Z,26.67
2023-03-01T22:39:03.978Z,27.52
2023-03-01T22:41:34.056Z,29.88
2023-03-01T22:44:02.037Z,26.55
2023-03-01T22:46:29.677Z,32.47
2023-03-01T22:48:59.520Z,31.00
2023-03-01T22:51:27.429Z,25.35
2023-03-01T22:53:55.046Z,29.17
2023-03-01T22:56:22.716Z,32.95
2023-03-01T22:58:50.547Z,29.20
2023-03-01T23:01:18.350Z,26.13
2023-03-01T23:03:45.947Z,30.42
2023-03-01T23:06:13.722Z,27.58
2023-03-01T23:08:41.284Z,33.55
2023-03-01T23:11:11.246Z,28.27
2023-03-01T23:13:38.995Z,29.15
2023-03-01T23:16:07.113Z,25.10
2023-03-01T23:18:35.737Z,27.80
2023-03-01T23:21:03.526Z,26.02
2023-03-01T23:23:31.405Z,27.58
2023-03-01T23:26:01.138Z,30.80
2023-03-01T23:28:28.830Z,30.67
2023-03-01T23:30:56.567Z,31.25
2023-03-01T23:33:27.029Z,37.95
2023-03-01T23:35:54.833Z,51.67
2023-03-01T23:38:22.499Z,48.22
2023-03-01T23:40:52.612Z,45.95
2023-03-01T23:43:20.445Z,46.88
2023-03-01T23:45:48.163Z,51.15
2023-03-01T23:48:15.752Z,45.38
2023-03-01T23:50:43.633Z,43.30
2023-03-01T23:53:11.247Z,41.75
2023-03-01T23:55:40.919Z,38.78
2023-03-01T23:58:08.653Z,57.33
